Babaevo, Russia
Current Conditions -  °F | °C
As of 7:00 AM on Thursday 23 Oct 2014 (Local Time) from ULWC Reporting Station
Clear Clear  
Wind Chill: -18°   Ceiling: Unl
Heat Index: -12°   Visibility: 6mi
Dew Point: -15°   Wind: 7mph
Humidity: 79%   Direction: 300°WNW
Pressure: 30.24"   Gusts: 13mph
Location:  59.4°N, 35.93°E
Report Text: ULWC 230400Z 30003G06MPS CAVOK M12/M15 Q1024 NOSIG RMKQFE758/1011 SC050
Loading
Personal Weather Stations






























Interactive Weather Map
Tropical Storm Tracking
New forecast layout! Learn more

10-Day Weather Forecast

Advertisements
Track Severe Weather on mobile